createdAt,value
2023-04-16T00:02:01.675Z,13.35
2023-04-16T00:04:28.930Z,13.27
2023-04-16T00:06:56.027Z,13.43
2023-04-16T00:09:23.005Z,11.93
2023-04-16T00:11:49.929Z,11.27
2023-04-16T00:14:17.020Z,10.20
2023-04-16T00:16:43.977Z,13.13
2023-04-16T00:19:13.511Z,12.82
2023-04-16T00:21:41.073Z,14.00
2023-04-16T00:24:08.097Z,11.05
2023-04-16T00:26:35.066Z,10.45
2023-04-16T00:29:02.260Z,10.55
2023-04-16T00:31:33.210Z,12.35
2023-04-16T00:34:00.573Z,12.98
2023-04-16T00:36:28.224Z,13.85
2023-04-16T00:38:56.156Z,11.15
2023-04-16T00:41:23.711Z,9.45
2023-04-16T00:43:51.794Z,10.10
2023-04-16T00:46:22.144Z,10.50
2023-04-16T00:48:51.129Z,11.52
2023-04-16T00:51:20.197Z,12.25
2023-04-16T00:53:47.814Z,12.55
2023-04-16T00:56:14.949Z,11.38
2023-04-16T00:58:41.963Z,10.65
2023-04-16T01:01:08.872Z,10.63
2023-04-16T01:03:35.976Z,12.15
2023-04-16T01:06:03.293Z,11.65
2023-04-16T01:08:30.238Z,14.15
2023-04-16T01:10:57.211Z,13.70
2023-04-16T01:13:24.094Z,13.85
2023-04-16T01:15:51.498Z,14.27
2023-04-16T01:18:20.524Z,13.90
2023-04-16T01:20:48.532Z,13.27
2023-04-16T01:23:16.157Z,13.13
2023-04-16T01:25:43.058Z,15.05
2023-04-16T01:28:09.961Z,16.92
2023-04-16T01:30:37.640Z,16.75
2023-04-16T01:33:06.374Z,15.40
2023-04-16T01:35:33.305Z,15.50
2023-04-16T01:38:00.271Z,17.80
2023-04-16T01:40:27.253Z,14.80
2023-04-16T01:42:54.154Z,16.83
2023-04-16T01:45:21.211Z,16.05
2023-04-16T01:47:52.699Z,16.48
2023-04-16T01:50:21.228Z,16.52
2023-04-16T01:52:48.124Z,15.50
2023-04-16T01:55:15.315Z,17.48
2023-04-16T01:57:42.219Z,17.70
2023-04-16T02:00:09.657Z,17.65
2023-04-16T02:02:37.013Z,18.95
2023-04-16T02:05:04.336Z,18.17
2023-04-16T02:07:31.828Z,19.10
2023-04-16T02:09:58.740Z,17.45
2023-04-16T02:12:26.521Z,19.48
2023-04-16T02:14:53.477Z,18.67
2023-04-16T02:17:20.587Z,18.83
2023-04-16T02:19:48.002Z,19.27
2023-04-16T02:22:14.996Z,19.20
2023-04-16T02:24:41.985Z,22.85
2023-04-16T02:27:08.913Z,22.00
2023-04-16T02:29:36.348Z,23.00
2023-04-16T02:32:03.438Z,17.73
2023-04-16T02:34:30.522Z,22.77
2023-04-16T02:36:58.509Z,22.20
2023-04-16T02:39:25.378Z,22.73
2023-04-16T02:41:52.538Z,24.23
2023-04-16T02:44:19.484Z,22.42
2023-04-16T02:46:46.527Z,23.15
2023-04-16T02:49:13.507Z,24.30
2023-04-16T02:51:40.437Z,22.20
2023-04-16T02:54:07.356Z,26.13
2023-04-16T02:56:34.250Z,22.73
2023-04-16T02:59:01.176Z,22.17
2023-04-16T03:01:29.133Z,24.05
2023-04-16T03:03:56.240Z,24.60
2023-04-16T03:06:23.408Z,24.88
2023-04-16T03:08:50.396Z,24.73
2023-04-16T03:11:17.673Z,24.95
2023-04-16T03:13:44.548Z,27.30
2023-04-16T03:16:11.734Z,35.25
2023-04-16T03:18:38.675Z,26.70
2023-04-16T03:21:05.863Z,28.05
2023-04-16T03:23:32.892Z,26.02
2023-04-16T03:25:59.841Z,29.15
2023-04-16T03:28:26.722Z,28.83
2023-04-16T03:30:54.026Z,23.88
2023-04-16T03:33:21.701Z,25.45
2023-04-16T03:35:56.190Z,24.88
2023-04-16T03:40:50.661Z,27.08
2023-04-16T03:43:17.554Z,27.75
2023-04-16T03:45:46.024Z,33.72
2023-04-16T03:48:13.120Z,27.13
2023-04-16T03:50:40.181Z,27.27
2023-04-16T03:53:07.163Z,27.92
2023-04-16T03:55:35.300Z,26.80
2023-04-16T03:58:03.549Z,26.27
2023-04-16T04:00:30.852Z,25.20
2023-04-16T04:02:57.997Z,33.25
2023-04-16T04:05:25.123Z,28.55
2023-04-16T04:07:52.168Z,22.65
2023-04-16T04:10:19.030Z,26.95
2023-04-16T04:12:46.092Z,25.67
2023-04-16T04:15:13.123Z,27.00
2023-04-16T04:17:40.117Z,27.80
2023-04-16T04:20:07.524Z,27.35
2023-04-16T04:22:34.461Z,29.10
2023-04-16T04:25:01.409Z,27.17
2023-04-16T04:27:28.385Z,30.58
2023-04-16T04:29:56.716Z,28.02
2023-04-16T04:32:23.694Z,26.02
2023-04-16T04:34:50.683Z,29.88
2023-04-16T04:37:17.634Z,27.48
2023-04-16T04:39:44.495Z,26.98
2023-04-16T04:42:11.659Z,27.90
2023-04-16T04:44:38.560Z,28.52
2023-04-16T04:47:05.482Z,29.33
2023-04-16T04:49:32.342Z,29.88
2023-04-16T04:51:59.255Z,28.55
2023-04-16T04:54:26.127Z,27.92
2023-04-16T04:56:53.119Z,29.08
2023-04-16T04:59:21.678Z,24.95
2023-04-16T05:01:49.068Z,29.65
2023-04-16T05:04:16.024Z,32.05
2023-04-16T05:06:43.520Z,26.50
2023-04-16T05:09:12.006Z,29.80
2023-04-16T05:11:39.484Z,26.23
2023-04-16T05:14:06.382Z,28.38
2023-04-16T05:16:36.290Z,28.05
2023-04-16T05:19:03.465Z,29.33
2023-04-16T05:21:30.850Z,28.55
2023-04-16T05:23:58.952Z,31.73
2023-04-16T05:26:25.932Z,32.38
2023-04-16T05:28:52.821Z,28.98
2023-04-16T05:31:19.791Z,28.10
2023-04-16T05:33:46.778Z,29.02
2023-04-16T05:36:13.657Z,26.33
2023-04-16T05:38:40.525Z,31.05
2023-04-16T05:41:07.513Z,31.83
2023-04-16T05:43:34.368Z,30.90
2023-04-16T05:46:01.406Z,24.80
2023-04-16T05:48:28.305Z,27.98
2023-04-16T05:50:55.240Z,45.28
2023-04-16T05:53:22.300Z,28.05
2023-04-16T05:55:49.202Z,28.15
2023-04-16T05:58:16.080Z,32.40
2023-04-16T06:00:43.139Z,33.15
2023-04-16T06:03:10.213Z,36.03
2023-04-16T06:05:37.221Z,34.97
2023-04-16T06:08:04.149Z,29.70
2023-04-16T06:10:31.477Z,26.10
2023-04-16T06:12:58.369Z,28.40
2023-04-16T06:15:25.350Z,31.42
2023-04-16T06:17:52.309Z,28.25
2023-04-16T06:20:19.223Z,29.13
2023-04-16T06:22:46.290Z,27.73
2023-04-16T06:25:13.137Z,24.23
2023-04-16T06:27:40.092Z,32.00
2023-04-16T06:30:12.619Z,31.55
2023-04-16T06:32:39.880Z,26.85
2023-04-16T06:35:07.250Z,28.27
2023-04-16T06:37:34.198Z,26.35
2023-04-16T06:40:01.148Z,32.22
2023-04-16T06:42:28.210Z,31.83
2023-04-16T06:44:55.104Z,23.50
2023-04-16T06:47:22.099Z,25.50
2023-04-16T06:49:49.011Z,24.38
2023-04-16T06:52:16.092Z,26.38
2023-04-16T06:54:42.984Z,25.67
2023-04-16T06:57:09.882Z,24.60
2023-04-16T06:59:36.784Z,27.27
2023-04-16T07:02:03.743Z,23.95
2023-04-16T07:04:30.712Z,25.00
2023-04-16T07:06:57.635Z,26.33
2023-04-16T07:09:25.007Z,22.40
2023-04-16T07:11:51.931Z,24.05
2023-04-16T07:14:18.961Z,25.95
2023-04-16T07:16:45.985Z,27.33
2023-04-16T07:19:12.950Z,20.38
2023-04-16T07:21:42.071Z,23.92
2023-04-16T07:24:08.972Z,25.95
2023-04-16T07:26:35.967Z,20.13
2023-04-16T07:29:02.825Z,22.67
2023-04-16T07:31:29.894Z,24.55
2023-04-16T07:33:56.790Z,25.92
2023-04-16T07:36:23.728Z,20.50
2023-04-16T07:38:50.717Z,21.67
2023-04-16T07:41:17.660Z,21.80
2023-04-16T07:43:44.546Z,21.63
2023-04-16T07:46:11.494Z,23.60
2023-04-16T07:48:38.392Z,20.90
2023-04-16T07:51:05.457Z,23.00
2023-04-16T07:53:32.389Z,24.17
2023-04-16T07:55:59.277Z,18.58
2023-04-16T07:58:26.187Z,20.63
2023-04-16T08:00:53.407Z,21.83
2023-04-16T08:03:20.553Z,19.98
2023-04-16T08:05:47.553Z,18.00
2023-04-16T08:08:14.523Z,23.30
2023-04-16T08:10:41.449Z,21.63
2023-04-16T08:13:08.362Z,16.50
2023-04-16T08:15:35.279Z,20.83
2023-04-16T08:18:02.229Z,18.70
2023-04-16T08:20:29.143Z,17.95
2023-04-16T08:22:56.083Z,16.88
2023-04-16T08:25:24.773Z,15.50
2023-04-16T08:27:51.666Z,14.98
2023-04-16T08:30:18.723Z,11.82
2023-04-16T08:32:47.371Z,11.95
2023-04-16T08:35:15.604Z,11.65
2023-04-16T08:37:42.480Z,12.63
2023-04-16T08:40:09.788Z,13.75
2023-04-16T08:42:52.601Z,9.35
2023-04-16T08:45:19.838Z,10.82
2023-04-16T08:47:49.114Z,12.30
2023-04-16T08:50:17.440Z,9.65
2023-04-16T08:52:52.741Z,8.55
2023-04-16T08:55:23.791Z,6.68
2023-04-16T08:58:20.964Z,9.05
2023-04-16T09:00:49.368Z,10.07
2023-04-16T09:03:16.565Z,9.82
2023-04-16T09:05:44.436Z,8.43
2023-04-16T09:08:12.983Z,9.25
2023-04-16T09:10:40.005Z,7.07
2023-04-16T09:13:09.571Z,10.02
2023-04-16T09:15:36.748Z,7.18
2023-04-16T09:18:03.979Z,6.90
2023-04-16T09:20:31.010Z,9.20
2023-04-16T09:22:57.947Z,6.22
2023-04-16T09:25:25.680Z,5.10
2023-04-16T09:27:52.895Z,4.20
2023-04-16T09:30:23.455Z,4.63
2023-04-16T09:33:12.393Z,4.70
2023-04-16T09:35:50.459Z,4.78
2023-04-16T09:38:18.026Z,3.92
2023-04-16T09:40:45.270Z,4.90
2023-04-16T09:43:14.530Z,5.30
2023-04-16T09:45:55.243Z,5.70
2023-04-16T09:48:32.958Z,5.60
2023-04-16T09:51:01.045Z,6.25
2023-04-16T09:53:30.321Z,5.82
2023-04-16T09:56:01.697Z,10.25
2023-04-16T09:58:29.303Z,7.25
2023-04-16T10:01:18.323Z,6.20
2023-04-16T10:03:50.221Z,6.03
2023-04-16T10:06:19.722Z,7.13
2023-04-16T10:08:51.199Z,7.40
2023-04-16T10:11:19.011Z,5.82
2023-04-16T10:13:46.607Z,4.63
2023-04-16T10:16:14.067Z,5.82
2023-04-16T10:18:45.589Z,5.97
2023-04-16T10:21:13.251Z,6.45
2023-04-16T10:23:42.926Z,7.05
2023-04-16T10:26:10.197Z,7.03
2023-04-16T10:28:37.564Z,6.20
2023-04-16T10:31:08.263Z,7.07
2023-04-16T10:33:37.328Z,7.15
2023-04-16T10:36:15.963Z,7.57
2023-04-16T10:38:48.196Z,6.53
2023-04-16T10:41:15.676Z,6.90
2023-04-16T10:43:47.878Z,6.63
2023-04-16T10:46:39.183Z,9.88
2023-04-16T10:49:28.231Z,6.85
2023-04-16T10:52:07.563Z,6.97
2023-04-16T10:54:36.562Z,7.63
2023-04-16T10:57:05.475Z,6.47
2023-04-16T10:59:34.991Z,6.45
2023-04-16T11:02:09.930Z,6.70
2023-04-16T11:04:39.345Z,9.82
2023-04-16T11:07:15.587Z,8.77
2023-04-16T11:09:54.288Z,7.15
2023-04-16T11:12:30.074Z,6.85
2023-04-16T11:15:11.006Z,8.18
2023-04-16T11:17:39.347Z,7.43
2023-04-16T11:20:17.855Z,7.20
2023-04-16T11:22:48.430Z,6.18
2023-04-16T11:25:26.877Z,6.43
2023-04-16T11:27:54.882Z,7.15
2023-04-16T11:30:42.578Z,7.70
2023-04-16T11:33:11.882Z,7.25
2023-04-16T11:35:40.279Z,7.25
2023-04-16T11:38:07.749Z,6.55
2023-04-16T11:40:36.028Z,9.43
2023-04-16T11:43:16.532Z,7.95
2023-04-16T11:46:02.640Z,6.55
2023-04-16T11:48:52.653Z,7.70
2023-04-16T11:51:20.757Z,7.43
2023-04-16T11:53:53.108Z,7.53
2023-04-16T11:56:31.006Z,7.05
2023-04-16T11:59:12.853Z,6.72
2023-04-16T12:01:42.433Z,7.40
2023-04-16T12:04:09.993Z,7.22
2023-04-16T12:06:37.357Z,7.32
2023-04-16T12:09:27.286Z,9.20
2023-04-16T12:11:54.395Z,9.05
2023-04-16T12:14:23.110Z,10.48
2023-04-16T12:16:50.231Z,10.50
2023-04-16T12:19:18.389Z,10.75
2023-04-16T12:21:46.960Z,9.15
2023-04-16T12:24:16.100Z,9.73
2023-04-16T12:26:45.457Z,12.88
2023-04-16T12:29:22.316Z,11.95
2023-04-16T12:31:50.608Z,11.48
2023-04-16T12:37:58.688Z,11.98
2023-04-16T12:40:25.879Z,11.25
2023-04-16T12:42:53.036Z,13.43
2023-04-16T12:45:20.037Z,13.73
2023-04-16T12:47:47.553Z,13.32
2023-04-16T12:50:14.493Z,14.45
2023-04-16T12:52:41.513Z,9.18
2023-04-16T12:55:08.826Z,10.13
2023-04-16T12:57:35.821Z,10.52
2023-04-16T13:00:02.870Z,8.73
2023-04-16T13:02:29.908Z,7.43
2023-04-16T13:04:56.865Z,8.75
2023-04-16T13:07:24.941Z,9.30
2023-04-16T13:09:51.809Z,10.20
2023-04-16T13:12:18.990Z,7.72
2023-04-16T13:14:46.040Z,8.50
2023-04-16T13:17:12.994Z,7.82
2023-04-16T13:19:39.867Z,7.80
2023-04-16T13:22:06.829Z,9.02
2023-04-16T13:24:33.784Z,8.80
2023-04-16T13:27:00.826Z,11.10
2023-04-16T13:29:28.190Z,8.88
2023-04-16T13:31:55.141Z,10.70
2023-04-16T13:34:22.136Z,9.02
2023-04-16T13:36:49.219Z,10.07
2023-04-16T13:39:16.573Z,9.60
2023-04-16T13:41:43.518Z,10.65
2023-04-16T13:44:10.433Z,10.27
2023-04-16T13:46:37.411Z,12.48
2023-04-16T13:49:04.461Z,14.45
2023-04-16T13:51:32.207Z,14.65
2023-04-16T13:53:59.156Z,12.02
2023-04-16T13:56:26.196Z,12.93
2023-04-16T13:58:53.460Z,16.33
2023-04-16T14:01:20.687Z,16.25
2023-04-16T14:03:47.747Z,15.40
2023-04-16T14:06:15.244Z,14.57
2023-04-16T14:08:42.203Z,15.20
2023-04-16T14:11:09.362Z,12.32
2023-04-16T14:13:36.945Z,16.30
2023-04-16T14:16:04.390Z,14.18
2023-04-16T14:18:31.393Z,14.35
2023-04-16T14:20:59.025Z,14.88
2023-04-16T14:23:26.671Z,12.82
2023-04-16T14:25:53.866Z,11.52
2023-04-16T14:28:20.856Z,16.45
2023-04-16T14:30:47.730Z,13.68
2023-04-16T14:33:14.692Z,12.93
2023-04-16T14:35:41.664Z,11.35
2023-04-16T14:38:08.656Z,10.88
2023-04-16T14:40:35.896Z,13.23
2023-04-16T14:43:02.871Z,11.77
2023-04-16T14:45:30.987Z,12.95
2023-04-16T14:47:58.015Z,10.65
2023-04-16T14:50:25.054Z,10.57
2023-04-16T14:52:53.816Z,11.55
2023-04-16T14:55:21.427Z,10.15
2023-04-16T14:57:48.354Z,10.95
2023-04-16T15:00:17.663Z,8.93
2023-04-16T15:02:46.378Z,12.82
2023-04-16T15:05:13.810Z,11.13
2023-04-16T15:07:40.842Z,12.70
2023-04-16T15:10:09.311Z,9.88
2023-04-16T15:12:36.427Z,10.60
2023-04-16T15:15:03.607Z,10.02
2023-04-16T15:17:30.711Z,12.00
2023-04-16T15:19:57.695Z,11.57
2023-04-16T15:22:24.725Z,13.10
2023-04-16T15:24:51.722Z,9.90
2023-04-16T15:27:19.430Z,10.07
2023-04-16T15:29:48.093Z,13.38
2023-04-16T15:32:15.183Z,9.60
2023-04-16T15:34:42.172Z,10.98
2023-04-16T15:37:09.781Z,11.73
2023-04-16T15:39:36.824Z,10.15
2023-04-16T15:42:07.501Z,10.18
2023-04-16T15:44:35.195Z,10.00
2023-04-16T15:47:02.221Z,10.93
2023-04-16T15:49:29.185Z,11.30
2023-04-16T15:51:56.525Z,8.77
2023-04-16T15:54:24.265Z,11.05
2023-04-16T15:56:51.767Z,10.65
2023-04-16T15:59:18.823Z,10.80
2023-04-16T16:01:46.056Z,9.85
2023-04-16T16:04:13.177Z,9.95
2023-04-16T16:06:40.426Z,8.98
2023-04-16T16:09:08.185Z,9.73
2023-04-16T16:11:37.159Z,10.30
2023-04-16T16:14:04.334Z,11.95
2023-04-16T16:16:32.853Z,9.05
2023-04-16T16:18:59.976Z,13.23
2023-04-16T16:21:28.741Z,8.48
2023-04-16T16:23:55.631Z,9.23
2023-04-16T16:26:23.209Z,12.00
2023-04-16T16:28:50.073Z,10.20
2023-04-16T16:31:17.052Z,8.68
2023-04-16T16:33:44.006Z,10.80
2023-04-16T16:36:11.526Z,11.00
2023-04-16T16:38:40.227Z,9.07
2023-04-16T16:41:07.438Z,10.02
2023-04-16T16:43:36.811Z,9.65
2023-04-16T16:46:04.857Z,10.07
2023-04-16T16:48:31.842Z,10.40
2023-04-16T16:50:58.803Z,9.82
2023-04-16T16:53:25.854Z,9.10
2023-04-16T16:55:52.781Z,9.43
2023-04-16T16:58:19.735Z,12.88
2023-04-16T17:00:46.692Z,11.23
2023-04-16T17:03:13.677Z,11.82
2023-04-16T17:05:40.988Z,9.73
2023-04-16T17:08:07.975Z,9.30
2023-04-16T17:10:35.976Z,11.20
2023-04-16T17:13:03.122Z,10.80
2023-04-16T17:15:30.133Z,12.18
2023-04-16T17:17:57.281Z,10.18
2023-04-16T17:20:24.287Z,9.38
2023-04-16T17:22:51.331Z,10.18
2023-04-16T17:25:18.298Z,10.85
2023-04-16T17:27:45.254Z,10.55
2023-04-16T17:30:12.495Z,15.43
2023-04-16T17:32:39.616Z,14.35
2023-04-16T17:35:07.118Z,13.75
2023-04-16T17:37:34.357Z,14.63
2023-04-16T17:40:01.356Z,13.27
2023-04-16T17:46:15.446Z,11.40
2023-04-16T17:48:44.083Z,10.93
2023-04-16T17:51:12.325Z,12.52
2023-04-16T17:53:39.439Z,8.88
2023-04-16T17:56:06.854Z,10.63
2023-04-16T17:58:35.365Z,9.18
2023-04-16T18:01:03.484Z,9.70
2023-04-16T18:03:31.482Z,8.90
2023-04-16T18:05:58.714Z,10.40
2023-04-16T18:08:25.808Z,9.45
2023-04-16T18:10:54.941Z,12.23
2023-04-16T18:13:22.004Z,11.40
2023-04-16T18:15:49.155Z,11.02
2023-04-16T18:18:16.343Z,11.55
2023-04-16T18:20:43.416Z,11.23
2023-04-16T18:23:10.376Z,10.93
2023-04-16T18:25:37.368Z,9.10
2023-04-16T18:28:05.262Z,10.38
2023-04-16T18:30:32.366Z,9.25
2023-04-16T18:35:29.326Z,7.60
2023-04-16T18:37:56.187Z,8.82
2023-04-16T18:40:23.141Z,8.40
2023-04-16T18:42:50.102Z,10.02
2023-04-16T18:45:21.525Z,10.85
2023-04-16T18:47:50.384Z,10.00
2023-04-16T18:50:17.523Z,10.18
2023-04-16T18:52:44.536Z,8.00
2023-04-16T18:55:11.468Z,8.95
2023-04-16T18:57:38.393Z,9.23
2023-04-16T19:00:11.267Z,7.70
2023-04-16T19:06:18.946Z,7.03
2023-04-16T19:08:45.918Z,6.40
2023-04-16T19:11:12.875Z,7.47
2023-04-16T19:13:39.944Z,8.25
2023-04-16T19:16:11.571Z,6.97
2023-04-16T19:18:39.368Z,7.75
2023-04-16T19:21:07.375Z,6.38
2023-04-16T19:23:34.387Z,5.82
2023-04-16T19:26:01.786Z,7.47
2023-04-16T19:28:29.087Z,5.57
2023-04-16T19:30:56.261Z,6.18
2023-04-16T19:33:23.234Z,5.57
2023-04-16T19:35:50.102Z,4.90
2023-04-16T19:38:17.177Z,5.97
2023-04-16T19:40:46.652Z,5.50
2023-04-16T19:43:13.868Z,5.40
2023-04-16T19:45:52.397Z,4.85
2023-04-16T19:48:20.140Z,5.38
2023-04-16T19:50:47.067Z,3.75
2023-04-16T19:53:14.425Z,4.75
2023-04-16T19:55:42.156Z,3.53
2023-04-16T19:58:09.638Z,4.50
2023-04-16T20:00:38.704Z,4.60
2023-04-16T20:03:06.610Z,7.53
2023-04-16T20:05:33.604Z,4.35
2023-04-16T20:08:00.619Z,4.05
2023-04-16T20:10:27.910Z,4.70
2023-04-16T20:12:54.853Z,4.57
2023-04-16T20:15:21.795Z,5.35
2023-04-16T20:17:48.781Z,5.10
2023-04-16T20:20:16.520Z,5.20
2023-04-16T20:22:43.900Z,5.10
2023-04-16T20:25:11.586Z,5.38
2023-04-16T20:27:38.652Z,4.15
2023-04-16T20:30:06.452Z,4.00
2023-04-16T20:32:33.630Z,5.22
2023-04-16T20:35:02.114Z,5.93
2023-04-16T20:37:29.221Z,4.32
2023-04-16T20:39:56.491Z,4.25
2023-04-16T20:42:26.518Z,4.07
2023-04-16T20:44:56.611Z,4.22
2023-04-16T20:47:24.115Z,4.00
2023-04-16T20:49:52.905Z,5.32
2023-04-16T20:52:20.249Z,4.20
2023-04-16T20:54:47.851Z,14.85
2023-04-16T20:57:14.761Z,4.28
2023-04-16T20:59:41.730Z,4.85
2023-04-16T21:02:08.903Z,6.47
2023-04-16T21:04:36.259Z,5.22
2023-04-16T21:07:04.444Z,4.97
2023-04-16T21:09:31.758Z,4.13
2023-04-16T21:11:58.729Z,5.10
2023-04-16T21:14:25.728Z,4.85
2023-04-16T21:16:52.651Z,5.30
2023-04-16T21:19:20.098Z,5.57
2023-04-16T21:21:47.056Z,5.85
2023-04-16T21:24:13.988Z,4.85
2023-04-16T21:26:41.020Z,4.82
2023-04-16T21:29:07.918Z,5.13
2023-04-16T21:31:35.018Z,4.70
2023-04-16T21:34:01.999Z,4.68
2023-04-16T21:36:32.049Z,5.68
2023-04-16T21:38:59.177Z,6.13
2023-04-16T21:41:26.541Z,5.68
2023-04-16T21:43:53.570Z,7.57
2023-04-16T21:46:21.001Z,6.65
2023-04-16T21:48:48.616Z,5.20
2023-04-16T21:51:15.938Z,5.40
2023-04-16T21:53:42.882Z,4.85
2023-04-16T21:56:09.766Z,4.63
2023-04-16T21:58:36.735Z,5.13
2023-04-16T22:01:03.934Z,4.60
2023-04-16T22:03:31.151Z,5.00
2023-04-16T22:06:01.772Z,5.85
2023-04-16T22:08:29.608Z,5.93
2023-04-16T22:11:01.694Z,5.20
2023-04-16T22:13:32.575Z,5.95
2023-04-16T22:16:03.409Z,5.53
2023-04-16T22:18:33.751Z,5.57
2023-04-16T22:21:00.913Z,6.05
2023-04-16T22:23:27.813Z,6.45
2023-04-16T22:25:56.098Z,7.63
2023-04-16T22:28:23.632Z,6.45
2023-04-16T22:30:50.597Z,6.60
2023-04-16T22:33:17.609Z,6.05
2023-04-16T22:35:44.570Z,5.55
2023-04-16T22:38:11.483Z,7.07
2023-04-16T22:40:38.425Z,7.65
2023-04-16T22:43:05.700Z,5.60
2023-04-16T22:45:32.606Z,5.40
2023-04-16T22:47:59.547Z,6.97
2023-04-16T22:50:26.588Z,4.53
2023-04-16T22:52:53.450Z,4.03
2023-04-16T22:55:20.456Z,4.18
2023-04-16T22:57:47.698Z,4.78
2023-04-16T23:00:18.076Z,4.40
2023-04-16T23:02:45.637Z,5.03
2023-04-16T23:05:12.630Z,5.63
2023-04-16T23:07:39.570Z,5.03
2023-04-16T23:10:08.512Z,4.63
2023-04-16T23:12:37.539Z,5.82
2023-04-16T23:15:06.777Z,5.00
2023-04-16T23:17:35.154Z,5.47
2023-04-16T23:20:02.773Z,5.20
2023-04-16T23:22:29.704Z,6.30
2023-04-16T23:24:56.646Z,5.32
2023-04-16T23:27:23.623Z,6.20
2023-04-16T23:29:50.738Z,6.63
2023-04-16T23:32:17.859Z,6.25
2023-04-16T23:34:44.786Z,6.50
2023-04-16T23:37:11.805Z,6.35
2023-04-16T23:39:38.805Z,6.10
2023-04-16T23:42:06.002Z,6.22
2023-04-16T23:44:33.204Z,5.50
2023-04-16T23:47:00.589Z,5.93
2023-04-16T23:49:27.583Z,6.15
2023-04-16T23:51:54.498Z,7.18
2023-04-16T23:54:21.585Z,6.28
2023-04-16T23:56:48.905Z,5.85
2023-04-16T23:59:16.867Z,8.25
